createdAt,value
2023-06-17T00:01:16.152Z,6.47
2023-06-17T00:03:44.493Z,7.03
2023-06-17T00:06:11.908Z,6.83
2023-06-17T00:08:39.043Z,7.13
2023-06-17T00:11:06.346Z,7.07
2023-06-17T00:13:33.890Z,6.30
2023-06-17T00:16:01.928Z,6.20
2023-06-17T00:18:29.926Z,6.30
2023-06-17T00:20:59.185Z,6.67
2023-06-17T00:23:26.767Z,6.83
2023-06-17T00:25:53.929Z,6.03
2023-06-17T00:28:21.101Z,6.30
2023-06-17T00:30:48.911Z,6.10
2023-06-17T00:33:16.720Z,6.93
2023-06-17T00:35:45.245Z,6.40
2023-06-17T00:38:12.552Z,6.43
2023-06-17T00:40:39.654Z,7.30
2023-06-17T00:43:06.761Z,6.83
2023-06-17T00:45:40.505Z,5.23
2023-06-17T00:48:10.023Z,7.27
2023-06-17T00:50:38.176Z,6.57
2023-06-17T00:53:06.654Z,6.57
2023-06-17T00:55:35.050Z,6.30
2023-06-17T00:58:02.598Z,5.47
2023-06-17T01:00:29.636Z,4.70
2023-06-17T01:02:57.897Z,4.70
2023-06-17T01:05:26.375Z,4.10
2023-06-17T01:07:59.833Z,4.60
2023-06-17T01:10:39.884Z,4.50
2023-06-17T01:13:07.704Z,5.67
2023-06-17T01:15:38.034Z,5.43
2023-06-17T01:18:08.355Z,5.63
2023-06-17T01:20:37.392Z,6.53
2023-06-17T01:23:06.733Z,7.13
2023-06-17T01:25:35.801Z,7.33
2023-06-17T01:28:21.269Z,6.77
2023-06-17T01:30:49.383Z,6.27
2023-06-17T01:33:17.152Z,5.30
2023-06-17T01:35:56.086Z,4.97
2023-06-17T01:38:44.718Z,5.23
2023-06-17T01:41:18.377Z,5.27
2023-06-17T01:43:46.624Z,5.53
2023-06-17T01:46:14.602Z,6.13
2023-06-17T01:48:42.694Z,5.83
2023-06-17T01:51:10.043Z,5.30
2023-06-17T01:53:37.033Z,6.10
2023-06-17T01:56:04.239Z,5.13
2023-06-17T01:58:31.229Z,5.03
2023-06-17T02:00:58.932Z,5.40
2023-06-17T02:03:26.020Z,5.50
2023-06-17T02:05:53.144Z,5.23
2023-06-17T02:08:20.291Z,5.57
2023-06-17T02:10:47.284Z,5.53
2023-06-17T02:13:14.698Z,5.70
2023-06-17T02:15:43.977Z,6.30
2023-06-17T02:18:13.748Z,6.17
2023-06-17T02:20:42.539Z,5.90
2023-06-17T02:23:09.577Z,5.73
2023-06-17T02:25:40.775Z,5.33
2023-06-17T02:28:08.159Z,6.13
2023-06-17T02:30:35.590Z,5.33
2023-06-17T02:33:02.748Z,4.97
2023-06-17T02:35:30.265Z,6.20
2023-06-17T02:37:58.357Z,5.40
2023-06-17T02:40:25.397Z,6.10
2023-06-17T02:42:53.242Z,6.03
2023-06-17T02:45:20.391Z,5.90
2023-06-17T02:47:48.609Z,6.27
2023-06-17T02:50:15.989Z,6.30
2023-06-17T02:52:43.036Z,6.77
2023-06-17T02:55:10.928Z,6.17
2023-06-17T02:57:38.351Z,6.07
2023-06-17T03:00:07.489Z,6.57
2023-06-17T03:02:34.552Z,6.60
2023-06-17T03:05:01.709Z,6.70
2023-06-17T03:07:37.544Z,6.47
2023-06-17T03:10:04.911Z,6.63
2023-06-17T03:12:37.723Z,6.47
2023-06-17T03:15:05.869Z,6.03
2023-06-17T03:17:33.028Z,6.37
2023-06-17T03:20:01.357Z,6.23
2023-06-17T03:22:30.903Z,6.07
2023-06-17T03:24:57.925Z,6.30
2023-06-17T03:27:25.274Z,6.63
2023-06-17T03:29:52.758Z,6.57
2023-06-17T03:32:19.725Z,6.57
2023-06-17T03:34:47.501Z,6.97
2023-06-17T03:37:15.521Z,6.43
2023-06-17T03:39:43.812Z,6.40
2023-06-17T03:42:16.053Z,5.60
2023-06-17T03:44:43.266Z,5.40
2023-06-17T03:47:10.930Z,5.30
2023-06-17T03:49:38.859Z,5.87
2023-06-17T03:52:06.889Z,5.27
2023-06-17T03:54:33.994Z,5.23
2023-06-17T03:57:01.243Z,5.50
2023-06-17T03:59:29.541Z,5.33
2023-06-17T04:01:56.717Z,5.97
2023-06-17T04:04:23.962Z,5.20
2023-06-17T04:06:51.652Z,6.47
2023-06-17T04:09:20.117Z,6.80
2023-06-17T04:11:50.952Z,7.57
2023-06-17T04:14:18.114Z,7.57
2023-06-17T04:16:50.454Z,8.00
2023-06-17T04:19:18.875Z,8.47
2023-06-17T04:21:46.598Z,6.73
2023-06-17T04:24:13.844Z,7.57
2023-06-17T04:26:44.315Z,7.90
2023-06-17T04:29:12.027Z,7.83
2023-06-17T04:31:41.650Z,7.17
2023-06-17T04:34:13.808Z,7.00
2023-06-17T04:36:41.057Z,6.60
2023-06-17T04:39:11.659Z,6.43
2023-06-17T04:41:39.293Z,5.53
2023-06-17T04:44:06.469Z,6.27
2023-06-17T04:46:34.799Z,5.67
2023-06-17T04:49:03.800Z,5.50
2023-06-17T04:51:31.022Z,5.60
2023-06-17T04:53:58.077Z,5.37
2023-06-17T04:56:28.060Z,5.00
2023-06-17T04:58:55.313Z,5.50
2023-06-17T05:01:23.434Z,5.40
2023-06-17T05:03:51.799Z,6.00
2023-06-17T05:06:19.975Z,5.50
2023-06-17T05:08:49.600Z,6.17
2023-06-17T05:11:18.759Z,6.73
2023-06-17T05:13:46.677Z,5.83
2023-06-17T05:16:13.701Z,6.90
2023-06-17T05:18:42.270Z,7.17
2023-06-17T05:21:09.382Z,8.17
2023-06-17T05:23:37.055Z,7.43
2023-06-17T05:26:05.496Z,7.43
2023-06-17T05:28:33.066Z,7.10
2023-06-17T05:31:00.297Z,6.93
2023-06-17T05:33:27.353Z,8.10
2023-06-17T05:35:55.694Z,7.70
2023-06-17T05:38:22.727Z,7.43
2023-06-17T05:40:49.929Z,8.03
2023-06-17T05:43:16.942Z,8.23
2023-06-17T05:45:44.152Z,6.93
2023-06-17T05:48:14.638Z,7.77
2023-06-17T05:50:41.663Z,7.57
2023-06-17T05:53:08.880Z,6.30
2023-06-17T05:55:35.948Z,8.00
2023-06-17T05:58:03.458Z,7.90
2023-06-17T06:00:34.456Z,8.13
2023-06-17T06:03:01.622Z,8.20
2023-06-17T06:05:28.754Z,8.13
2023-06-17T06:07:55.977Z,9.53
2023-06-17T06:10:23.388Z,8.20
2023-06-17T06:12:55.992Z,13.40
2023-06-17T06:15:24.752Z,7.87
2023-06-17T06:17:51.831Z,8.07
2023-06-17T06:20:19.632Z,18.97
2023-06-17T06:22:47.068Z,11.20
2023-06-17T06:25:14.102Z,9.70
2023-06-17T06:27:41.142Z,8.63
2023-06-17T06:30:09.557Z,9.57
2023-06-17T06:32:40.553Z,8.77
2023-06-17T06:35:07.918Z,10.00
2023-06-17T06:37:35.240Z,9.77
2023-06-17T06:40:02.705Z,9.40
2023-06-17T06:42:32.789Z,9.30
2023-06-17T06:45:16.814Z,10.23
2023-06-17T06:47:45.541Z,11.27
2023-06-17T06:50:12.944Z,8.83
2023-06-17T06:52:40.687Z,8.57
2023-06-17T06:55:08.374Z,9.90
2023-06-17T06:57:37.172Z,10.43
2023-06-17T07:00:10.204Z,12.40
2023-06-17T07:02:39.238Z,11.80
2023-06-17T07:05:07.077Z,11.07
2023-06-17T07:07:42.806Z,10.93
2023-06-17T07:10:10.479Z,11.00
2023-06-17T07:12:37.916Z,11.00
2023-06-17T07:15:06.648Z,10.77
2023-06-17T07:17:34.080Z,10.60
2023-06-17T07:20:04.185Z,11.60
2023-06-17T07:22:31.590Z,11.60
2023-06-17T07:24:58.801Z,11.30
2023-06-17T07:27:26.098Z,10.57
2023-06-17T07:29:53.431Z,10.37
2023-06-17T07:32:20.480Z,9.77
2023-06-17T07:34:50.049Z,9.77
2023-06-17T07:37:17.147Z,9.83
2023-06-17T07:39:47.538Z,10.50
2023-06-17T07:42:17.917Z,8.23
2023-06-17T07:44:47.724Z,11.23
2023-06-17T07:47:14.798Z,14.27
2023-06-17T07:49:41.840Z,9.50
2023-06-17T07:52:08.902Z,10.97
2023-06-17T07:54:36.950Z,9.67
2023-06-17T07:57:04.854Z,16.47
2023-06-17T07:59:32.331Z,11.33
2023-06-17T08:01:59.700Z,12.17
2023-06-17T08:04:26.941Z,12.50
2023-06-17T08:06:53.967Z,13.23
2023-06-17T08:09:21.154Z,11.20
2023-06-17T08:11:49.184Z,11.70
2023-06-17T08:14:17.533Z,9.40
2023-06-17T08:16:45.072Z,8.33
2023-06-17T08:19:13.094Z,9.20
2023-06-17T08:21:43.375Z,9.53
2023-06-17T08:24:19.600Z,8.70
2023-06-17T08:26:47.153Z,10.57
2023-06-17T08:29:15.125Z,9.63
2023-06-17T08:31:43.818Z,8.90
2023-06-17T08:34:12.281Z,8.90
2023-06-17T08:36:50.918Z,8.70
2023-06-17T08:39:20.306Z,8.43
2023-06-17T08:41:49.847Z,8.60
2023-06-17T08:44:17.584Z,8.77
2023-06-17T08:46:46.165Z,8.03
2023-06-17T08:49:14.409Z,8.37
2023-06-17T08:51:42.144Z,8.30
2023-06-17T08:54:10.831Z,7.80
2023-06-17T08:56:38.476Z,8.93
2023-06-17T08:59:06.046Z,8.57
2023-06-17T09:01:34.017Z,7.43
2023-06-17T09:04:03.135Z,7.33
2023-06-17T09:06:31.244Z,7.50
2023-06-17T09:08:59.131Z,8.47
2023-06-17T09:11:31.529Z,8.07
2023-06-17T09:27:31.524Z,7.20
2023-06-17T09:30:10.668Z,7.10
2023-06-17T09:32:44.166Z,5.73
2023-06-17T09:35:18.540Z,6.80
2023-06-17T09:40:32.656Z,6.10
2023-06-17T09:43:20.951Z,6.80
2023-06-17T09:45:56.384Z,5.23
2023-06-17T09:48:26.120Z,8.27
2023-06-17T09:50:57.683Z,5.60
2023-06-17T09:53:30.563Z,5.13
2023-06-17T09:56:00.014Z,5.93
2023-06-17T09:58:34.141Z,5.37
2023-06-17T10:01:07.162Z,5.40
2023-06-17T10:03:35.304Z,5.33
2023-06-17T10:06:10.023Z,5.13
2023-06-17T10:08:49.913Z,5.57
2023-06-17T10:11:21.459Z,5.20
2023-06-17T10:14:00.521Z,5.03
2023-06-17T10:16:32.116Z,4.80
2023-06-17T10:19:02.357Z,4.90
2023-06-17T10:21:30.729Z,4.83
2023-06-17T10:24:01.245Z,5.03
2023-06-17T10:26:30.087Z,4.40
2023-06-17T10:29:08.437Z,5.63
2023-06-17T10:31:39.352Z,3.87
2023-06-17T10:34:09.348Z,4.53
2023-06-17T10:36:37.228Z,4.80
2023-06-17T10:39:13.164Z,4.93
2023-06-17T10:41:40.158Z,4.33
2023-06-17T10:44:29.327Z,4.67
2023-06-17T10:46:57.685Z,5.40
2023-06-17T10:49:25.031Z,4.40
2023-06-17T10:51:58.850Z,4.50
2023-06-17T10:54:34.040Z,4.70
2023-06-17T10:57:03.041Z,5.40
2023-06-17T10:59:33.573Z,5.00
2023-06-17T11:02:08.424Z,5.20
2023-06-17T11:04:38.211Z,4.33
2023-06-17T11:07:06.127Z,4.03
2023-06-17T11:09:34.683Z,3.40
2023-06-17T11:12:03.603Z,4.00
2023-06-17T11:14:32.772Z,3.20
2023-06-17T11:16:59.933Z,3.77
2023-06-17T11:19:27.161Z,3.10
2023-06-17T11:22:08.517Z,3.67
2023-06-17T11:24:36.889Z,2.90
2023-06-17T11:27:07.089Z,2.80
2023-06-17T11:29:34.359Z,2.60
2023-06-17T11:32:03.190Z,2.83
2023-06-17T11:34:33.258Z,2.70
2023-06-17T11:37:03.222Z,3.23
2023-06-17T11:39:32.135Z,2.90
2023-06-17T11:42:04.023Z,2.60
2023-06-17T11:44:36.026Z,2.33
2023-06-17T11:47:08.285Z,2.40
2023-06-17T11:49:36.604Z,2.50
2023-06-17T11:52:12.289Z,1.90
2023-06-17T11:54:51.837Z,2.17
2023-06-17T11:57:23.852Z,2.57
2023-06-17T11:59:52.108Z,2.53
2023-06-17T12:02:20.265Z,2.60
2023-06-17T12:04:48.034Z,2.10
2023-06-17T12:07:15.668Z,2.93
2023-06-17T12:09:54.483Z,2.30
2023-06-17T12:12:37.024Z,2.47
2023-06-17T12:15:15.086Z,1.93
2023-06-17T12:17:44.186Z,1.40
2023-06-17T12:20:19.226Z,1.30
2023-06-17T12:22:47.985Z,1.30
2023-06-17T12:25:15.233Z,1.10
2023-06-17T12:27:44.070Z,1.17
2023-06-17T12:30:15.216Z,1.50
2023-06-17T12:32:44.151Z,1.53
2023-06-17T12:35:13.160Z,2.10
2023-06-17T12:37:42.484Z,1.93
2023-06-17T12:40:10.558Z,1.40
2023-06-17T12:42:38.036Z,1.27
2023-06-17T12:45:06.822Z,2.00
2023-06-17T12:47:34.109Z,1.53
2023-06-17T12:50:01.457Z,1.90
2023-06-17T12:52:31.373Z,1.90
2023-06-17T12:55:02.192Z,1.83
2023-06-17T12:57:32.962Z,1.97
2023-06-17T13:00:01.357Z,2.00
2023-06-17T13:05:55.016Z,2.30
2023-06-17T13:08:22.167Z,1.90
2023-06-17T13:10:49.480Z,2.30
2023-06-17T13:13:16.710Z,1.70
2023-06-17T13:15:44.076Z,1.70
2023-06-17T13:18:11.305Z,2.00
2023-06-17T13:20:38.355Z,1.87
2023-06-17T13:23:05.708Z,1.50
2023-06-17T13:25:32.897Z,1.70
2023-06-17T13:28:05.889Z,2.93
2023-06-17T13:30:33.266Z,1.60
2023-06-17T13:33:00.314Z,1.60
2023-06-17T13:35:27.330Z,1.57
2023-06-17T13:37:56.104Z,1.57
2023-06-17T13:40:23.952Z,2.00
2023-06-17T13:42:51.308Z,2.17
2023-06-17T13:45:18.637Z,2.57
2023-06-17T13:47:46.295Z,2.07
2023-06-17T13:50:13.453Z,1.90
2023-06-17T13:52:40.473Z,1.73
2023-06-17T13:55:08.266Z,1.73
2023-06-17T13:57:35.285Z,2.00
2023-06-17T14:00:02.420Z,2.37
2023-06-17T14:02:33.541Z,2.07
2023-06-17T14:05:02.067Z,2.07
2023-06-17T14:07:30.902Z,2.00
2023-06-17T14:09:58.285Z,2.00
2023-06-17T14:12:25.594Z,2.20
2023-06-17T14:14:53.637Z,2.10
2023-06-17T14:17:21.104Z,2.30
2023-06-17T14:19:48.436Z,2.23
2023-06-17T14:22:15.653Z,2.20
2023-06-17T14:24:43.022Z,2.17
2023-06-17T14:27:34.575Z,2.60
2023-06-17T14:30:03.476Z,2.47
2023-06-17T14:32:34.183Z,2.20
2023-06-17T14:35:01.612Z,2.30
2023-06-17T14:37:33.662Z,1.97
2023-06-17T14:40:00.880Z,2.63
2023-06-17T14:42:29.361Z,2.47
2023-06-17T14:44:56.460Z,3.00
2023-06-17T14:47:24.242Z,2.70
2023-06-17T14:49:51.329Z,2.40
2023-06-17T14:52:18.569Z,8.43
2023-06-17T14:54:45.890Z,4.33
2023-06-17T14:57:13.645Z,3.53
2023-06-17T14:59:41.156Z,2.87
2023-06-17T15:02:36.734Z,2.40
2023-06-17T15:05:03.827Z,2.60
2023-06-17T15:07:31.019Z,2.20
2023-06-17T15:09:58.024Z,2.63
2023-06-17T15:12:25.039Z,2.37
2023-06-17T15:14:54.672Z,2.23
2023-06-17T15:17:22.054Z,2.50
2023-06-17T15:19:49.128Z,2.30
2023-06-17T15:22:16.313Z,3.00
2023-06-17T15:24:43.369Z,2.60
2023-06-17T15:27:10.554Z,2.53
2023-06-17T15:29:37.642Z,2.70
2023-06-17T15:32:05.056Z,2.60
2023-06-17T15:34:32.060Z,2.47
2023-06-17T15:36:59.052Z,3.00
2023-06-17T15:39:28.955Z,3.50
2023-06-17T15:41:56.175Z,2.60
2023-06-17T15:44:23.318Z,2.80
2023-06-17T15:46:51.226Z,4.17
2023-06-17T15:49:18.972Z,2.80
2023-06-17T15:51:46.036Z,3.33
2023-06-17T15:54:14.359Z,2.70
2023-06-17T15:56:47.143Z,2.90
2023-06-17T15:59:14.520Z,2.53
2023-06-17T16:01:41.616Z,3.40
2023-06-17T16:04:34.310Z,3.50
2023-06-17T16:07:03.962Z,4.30
2023-06-17T16:09:35.273Z,3.10
2023-06-17T16:12:04.100Z,3.13
2023-06-17T16:14:36.922Z,4.10
2023-06-17T16:17:06.841Z,3.90
2023-06-17T16:19:34.329Z,4.33
2023-06-17T16:22:03.328Z,4.27
2023-06-17T16:24:31.719Z,4.67
2023-06-17T16:26:59.702Z,3.77
2023-06-17T16:29:26.826Z,5.00
2023-06-17T16:31:53.876Z,4.10
2023-06-17T16:34:21.075Z,3.87
2023-06-17T16:36:48.089Z,4.80
2023-06-17T16:39:15.170Z,5.83
2023-06-17T16:41:42.289Z,4.43
2023-06-17T16:44:09.874Z,5.93
2023-06-17T16:46:37.309Z,4.23
2023-06-17T16:49:04.546Z,4.20
2023-06-17T16:51:32.511Z,4.00
2023-06-17T16:54:01.901Z,4.47
2023-06-17T16:56:31.108Z,4.77
2023-06-17T16:58:58.471Z,4.10
2023-06-17T17:01:25.768Z,3.90
2023-06-17T17:03:52.901Z,4.23
2023-06-17T17:06:19.976Z,4.53
2023-06-17T17:08:51.027Z,4.57
2023-06-17T17:11:18.085Z,4.30
2023-06-17T17:13:49.259Z,5.33
2023-06-17T17:16:17.548Z,4.83
2023-06-17T17:18:44.690Z,5.30
2023-06-17T17:21:11.843Z,4.50
2023-06-17T17:23:41.688Z,4.70
2023-06-17T17:26:10.287Z,5.03
2023-06-17T17:28:37.465Z,4.87
2023-06-17T17:31:04.521Z,4.50
2023-06-17T17:33:33.927Z,5.43
2023-06-17T17:36:01.691Z,4.93
2023-06-17T17:38:28.752Z,5.67
2023-06-17T17:40:55.783Z,4.80
2023-06-17T17:43:22.814Z,5.93
2023-06-17T17:45:49.907Z,5.60
2023-06-17T17:48:17.354Z,4.63
2023-06-17T17:50:44.528Z,4.90
2023-06-17T17:53:11.938Z,6.33
2023-06-17T17:55:39.024Z,6.00
2023-06-17T17:58:06.066Z,5.43
2023-06-17T18:00:33.195Z,6.13
2023-06-17T18:03:00.545Z,4.53
2023-06-17T18:05:27.624Z,4.87
2023-06-17T18:07:54.724Z,5.37
2023-06-17T18:10:22.140Z,6.33
2023-06-17T18:12:49.504Z,5.87
2023-06-17T18:15:16.678Z,5.07
2023-06-17T18:17:43.716Z,5.07
2023-06-17T18:20:11.228Z,4.77
2023-06-17T18:22:38.792Z,4.60
2023-06-17T18:25:06.743Z,5.37
2023-06-17T18:27:36.272Z,5.33
2023-06-17T18:30:05.049Z,5.47
2023-06-17T18:32:36.858Z,5.43
2023-06-17T18:35:04.078Z,5.73
2023-06-17T18:37:33.112Z,5.30
2023-06-17T18:40:02.516Z,5.30
2023-06-17T18:42:33.733Z,5.67
2023-06-17T18:45:01.346Z,5.53
2023-06-17T18:47:32.235Z,6.40
2023-06-17T18:50:00.140Z,5.07
2023-06-17T18:52:27.562Z,6.10
2023-06-17T18:54:54.897Z,5.63
2023-06-17T18:57:23.488Z,5.67
2023-06-17T18:59:52.569Z,6.43
2023-06-17T19:02:21.409Z,6.00
2023-06-17T19:04:48.575Z,6.47
2023-06-17T19:07:15.741Z,6.03
2023-06-17T19:09:42.782Z,6.00
2023-06-17T19:12:10.464Z,5.80
2023-06-17T19:14:37.886Z,5.67
2023-06-17T19:17:05.497Z,5.77
2023-06-17T19:19:32.730Z,5.53
2023-06-17T19:21:59.866Z,5.67
2023-06-17T19:24:26.994Z,5.90
2023-06-17T19:26:54.128Z,5.10
2023-06-17T19:29:21.395Z,4.73
2023-06-17T19:31:48.601Z,3.67
2023-06-17T19:34:15.653Z,3.63
2023-06-17T19:36:42.739Z,3.20
2023-06-17T19:39:09.758Z,3.10
2023-06-17T19:41:37.174Z,2.93
2023-06-17T19:44:06.156Z,2.90
2023-06-17T19:46:33.725Z,2.70
2023-06-17T19:49:00.887Z,3.70
2023-06-17T19:51:28.615Z,4.03
2023-06-17T19:53:57.029Z,3.63
2023-06-17T19:56:24.867Z,3.30
2023-06-17T19:58:52.085Z,2.60
2023-06-17T20:01:19.979Z,2.50
2023-06-17T20:03:47.268Z,2.60
2023-06-17T20:06:14.892Z,2.63
2023-06-17T20:08:42.399Z,1.70
2023-06-17T20:11:09.573Z,2.20
2023-06-17T20:13:36.881Z,2.13
2023-06-17T20:16:04.763Z,2.67
2023-06-17T20:18:31.849Z,2.97
2023-06-17T20:20:58.901Z,3.27
2023-06-17T20:23:27.966Z,3.43
2023-06-17T20:25:55.506Z,3.10
2023-06-17T20:28:22.480Z,3.30
2023-06-17T20:30:49.564Z,2.87
2023-06-17T20:33:16.637Z,3.53
2023-06-17T20:35:43.840Z,3.20
2023-06-17T20:38:10.880Z,3.00
2023-06-17T20:40:38.259Z,2.50
2023-06-17T20:43:05.200Z,2.00
2023-06-17T20:45:32.484Z,1.20
2023-06-17T20:47:59.760Z,1.20
2023-06-17T20:50:27.956Z,1.73
2023-06-17T20:52:57.409Z,2.00
2023-06-17T20:55:29.999Z,3.37
2023-06-17T20:57:57.445Z,4.10
2023-06-17T21:00:24.614Z,4.03
2023-06-17T21:02:51.983Z,4.60
2023-06-17T21:05:19.283Z,4.53
2023-06-17T21:07:46.523Z,4.17
2023-06-17T21:10:14.319Z,4.00
2023-06-17T21:12:41.650Z,3.77
2023-06-17T21:15:09.321Z,3.47
2023-06-17T21:17:36.421Z,2.90
2023-06-17T21:20:03.954Z,3.47
2023-06-17T21:22:31.332Z,3.30
2023-06-17T21:24:58.403Z,3.37
2023-06-17T21:27:25.495Z,3.37
2023-06-17T21:29:52.960Z,3.30
2023-06-17T21:32:20.100Z,3.10
2023-06-17T21:34:47.672Z,3.50
2023-06-17T21:37:14.870Z,2.80
2023-06-17T21:39:42.324Z,1.90
2023-06-17T21:42:09.443Z,1.43
2023-06-17T21:44:36.730Z,1.40
2023-06-17T21:47:04.171Z,1.50
2023-06-17T21:49:31.398Z,1.23
2023-06-17T21:51:58.472Z,1.30
2023-06-17T21:54:25.549Z,0.77
2023-06-17T21:56:52.543Z,0.80
2023-06-17T21:59:19.538Z,0.70
2023-06-17T22:01:47.953Z,0.60
2023-06-17T22:04:14.991Z,0.50
2023-06-17T22:06:42.128Z,0.70
2023-06-17T22:09:09.181Z,0.70
2023-06-17T22:11:36.213Z,0.60
2023-06-17T22:14:03.358Z,0.50
2023-06-17T22:16:30.565Z,0.60
2023-06-17T22:18:57.692Z,0.90
2023-06-17T22:21:24.760Z,0.80
2023-06-17T22:23:51.795Z,1.17
2023-06-17T22:26:18.947Z,1.00
2023-06-17T22:28:46.079Z,0.80
2023-06-17T22:31:13.117Z,0.77
2023-06-17T22:33:40.157Z,0.87
2023-06-17T22:36:07.420Z,0.70
2023-06-17T22:38:34.410Z,0.63
2023-06-17T22:41:01.629Z,0.93
2023-06-17T22:43:29.163Z,0.80
2023-06-17T22:45:56.163Z,0.73
2023-06-17T22:48:23.172Z,0.87
2023-06-17T22:50:50.577Z,0.80
2023-06-17T22:53:17.844Z,0.90
2023-06-17T22:55:44.846Z,0.77
2023-06-17T22:58:11.909Z,0.80
2023-06-17T23:00:41.560Z,0.80
2023-06-17T23:03:09.222Z,1.03
2023-06-17T23:05:36.326Z,0.87
2023-06-17T23:08:04.634Z,0.70
2023-06-17T23:10:31.768Z,0.90
2023-06-17T23:12:58.802Z,0.70
2023-06-17T23:15:25.827Z,0.90
2023-06-17T23:17:52.939Z,0.80
2023-06-17T23:20:20.235Z,0.80
2023-06-17T23:22:47.492Z,0.90
2023-06-17T23:25:15.630Z,0.90
2023-06-17T23:27:44.542Z,0.70
2023-06-17T23:30:14.809Z,0.90
2023-06-17T23:32:42.622Z,0.83
2023-06-17T23:35:10.283Z,0.80
2023-06-17T23:37:37.535Z,0.73
2023-06-17T23:40:05.182Z,1.10
2023-06-17T23:42:32.725Z,0.90
2023-06-17T23:45:00.598Z,1.40
2023-06-17T23:47:27.793Z,1.27
2023-06-17T23:49:55.064Z,1.87
2023-06-17T23:52:22.174Z,1.80
2023-06-17T23:54:49.249Z,1.50
